Time;durP1;ratioP1;P1;durP2;ratioP2;P2;SDS_P1;SDS_P2;PMS_P1;PMS_P2;Temp;Humidity;BMP_temperature;BMP_pressure;BME280_temperature;BME280_humidity;BME280_pressure;Samples;Min_cycle;Max_cycle;Signal;HPM_P1;HPM_P2
2022/02/05 00:03:02;;;;;;;41.47;21.05;;;;;;;1.35;82.39;92471.69;5001126;28;20144;-90
2022/02/05 00:08:58;;;;;;;;;;;;;;;;;;;;;
2022/02/05 00:45:13;;;;;;;39.90;19.83;;;;;;;0.66;81.43;92396.88;4998447;28;20088;-90
2022/02/05 00:47:59;;;;;;;45.78;20.33;;;;;;;0.61;81.21;92389.84;5001454;28;20449;-90
2022/02/05 00:50:44;;;;;;;42.25;21.30;;;;;;;0.54;81.64;92384.03;4998768;28;20048;-89
2022/02/05 00:53:48;;;;;;;45.22;21.45;;;;;;;0.62;81.72;92396.53;4979708;28;20050;-90
2022/02/05 00:59:29;;;;;;;;;;;;;;;;;;;;;
2022/02/05 01:02:05;;;;;;;41.73;21.50;;;;;;;1.15;82.77;92468.69;4983825;28;20053;-90
2022/02/05 01:04:51;;;;;;;38.72;20.45;;;;;;;0.95;82.47;92436.38;4968366;28;20313;-90
2022/02/05 01:07:34;;;;;;;40.55;21.23;;;;;;;0.66;82.92;92389.16;4982145;28;20050;-89
2022/02/05 01:10:18;;;;;;;;;;;;;;;;;;;;;
2022/02/05 01:13:17;;;;;;;47.63;21.20;;;;;;;0.84;82.80;92426.88;4997625;28;20045;-90
2022/02/05 01:16:12;;;;;;;40.67;20.23;;;;;;;0.84;82.41;92434.59;4997855;28;20052;-90
2022/02/05 01:18:51;;;;;;;48.75;21.02;;;;;;;0.60;82.42;92397.78;4996179;28;20038;-90
2022/02/05 01:21:50;;;;;;;44.05;21.80;;;;;;;0.58;82.96;92400.56;4979572;28;20034;-90
2022/02/05 01:24:52;;;;;;;39.08;19.15;;;;;;;0.96;83.18;92452.63;4995602;28;20046;-90
2022/02/05 01:28:03;;;;;;;44.95;19.80;;;;;;;0.91;82.70;92440.41;5002737;28;20384;-89
2022/02/05 01:31:05;;;;;;;34.83;18.73;;;;;;;0.61;82.02;92396.78;4978250;28;20076;-89
2022/02/05 01:34:13;;;;;;;;;;;;;;;;;;;;;
2022/02/05 01:49:28;;;;;;;42.97;16.92;;;;;;;0.91;80.71;92461.03;4987794;28;20034;-90
2022/02/05 02:07:25;;;;;;;34.33;17.63;;;;;;;0.57;81.43;92413.69;4977952;28;20328;-90
2022/02/05 02:16:28;;;;;;;44.40;19.30;;;;;;;0.57;81.48;92424.00;4962290;28;20043;-89
2022/02/05 02:21:52;;;;;;;36.65;16.98;;;;;;;0.44;81.71;92390.75;4999273;28;20064;-90
2022/02/05 02:30:53;;;;;;;38.60;17.13;;;;;;;0.95;81.42;92480.19;4995269;28;20491;-90
2022/02/05 02:33:51;;;;;;;35.88;17.52;;;;;;;0.77;81.61;92445.03;4979873;28;20065;-90
2022/02/05 02:39:27;;;;;;;38.65;18.75;;;;;;;0.48;82.01;92384.16;5014084;28;20058;-90
2022/02/05 02:45:18;;;;;;;37.28;17.95;;;;;;;0.83;81.75;92433.81;4993528;28;20034;-90
2022/02/05 02:47:57;;;;;;;41.05;16.85;;;;;;;0.49;81.29;92381.34;4977895;28;20042;-90
2022/02/05 02:59:49;;;;;;;34.97;14.18;;;;;;;0.90;81.26;92413.09;4993241;28;20022;-90
2022/02/05 03:05:18;;;;;;;30.42;16.25;;;;;;;0.89;80.15;92403.75;4992972;28;20089;-89
2022/02/05 03:07:52;;;;;;;37.88;14.88;;;;;;;0.67;80.10;92379.63;4977135;28;20038;-89
2022/02/05 03:10:48;;;;;;;32.90;14.20;;;;;;;0.70;80.02;92398.00;4984795;28;20034;-90
2022/02/05 03:17:04;;;;;;;34.47;16.42;;;;;;;0.83;80.10;92440.75;5013301;28;20508;-90
2022/02/05 03:20:04;;;;;;;34.83;16.48;;;;;;;0.46;80.56;92381.78;4978107;28;20058;-90
2022/02/05 03:22:39;;;;;;;38.90;16.17;;;;;;;0.76;80.58;92424.63;4994362;28;20042;-91
2022/02/05 03:25:12;;;;;;;32.30;16.23;;;;;;;0.72;80.78;92419.16;4978911;28;20042;-91
2022/02/05 03:28:10;;;;;;;34.95;16.45;;;;;;;0.54;80.25;92398.69;4983508;28;20058;-90
2022/02/05 03:30:48;;;;;;;31.45;15.00;;;;;;;0.52;80.33;92396.34;4976806;28;20017;-91
2022/02/05 03:33:37;;;;;;;41.42;16.33;;;;;;;0.84;80.43;92444.91;4964201;28;20042;-90
2022/02/05 03:36:37;;;;;;;33.03;15.70;;;;;;;0.67;79.97;92423.41;4984970;28;20033;-91
2022/02/05 03:39:23;;;;;;;33.72;14.73;;;;;;;0.45;79.89;92384.59;4983732;28;20037;-90
2022/02/05 03:42:20;;;;;;;29.33;14.65;;;;;;;0.39;80.45;92392.22;4986460;28;20121;-90
2022/02/05 03:45:02;;;;;;;33.88;14.57;;;;;;;0.39;80.15;92386.28;5001685;28;20038;-90
2022/02/05 03:48:08;;;;;;;32.00;15.35;;;;;;;0.71;80.21;92440.00;4996775;28;20046;-90
2022/02/05 03:51:02;;;;;;;32.47;14.88;;;;;;;0.38;80.50;92392.44;4999624;28;20125;-90
2022/02/05 03:53:46;;;;;;;29.10;14.55;;;;;;;0.90;80.71;92476.72;4985752;28;20084;-90
2022/02/05 03:59:52;;;;;;;31.55;15.88;;;;;;;0.37;80.51;92407.09;4973094;28;20057;-92
2022/02/05 04:02:39;;;;;;;30.25;14.27;;;;;;;0.32;80.66;92393.34;4983485;28;20101;-91
2022/02/05 04:05:47;;;;;;;32.53;15.40;;;;;;;0.67;80.87;92454.34;5010494;28;20034;-91
2022/02/05 04:08:39;;;;;;;38.03;17.67;;;;;;;0.83;80.91;92475.06;4979138;28;20082;-91
2022/02/05 04:17:05;;;;;;;;;;;;;;;;;;;;;
2022/02/05 04:20:06;;;;;;;;;;;;;;;;;;;;;
2022/02/05 04:22:39;;;;;;;40.50;18.95;;;;;;;0.81;81.66;92460.81;4996122;28;20038;-90
2022/02/05 04:25:27;;;;;;;44.13;20.10;;;;;;;0.46;81.92;92402.41;4996720;28;20038;-90
2022/02/05 04:28:11;;;;;;;;;;;;;;;;;;;;;
2022/02/05 04:31:01;;;;;;;47.28;18.92;;;;;;;0.48;82.41;92392.66;4977766;28;20042;-91
2022/02/05 04:33:40;;;;;;;38.15;19.52;;;;;;;0.48;82.37;92399.59;4986271;28;20045;-90
2022/02/05 04:36:45;;;;;;;37.58;19.05;;;;;;;0.55;82.34;92405.41;4982492;28;21040;-90
2022/02/05 04:39:14;;;;;;;37.72;18.40;;;;;;;0.71;82.36;92422.75;4995464;28;20054;-90
2022/02/05 04:45:23;;;;;;;51.00;19.73;;;;;;;0.57;82.28;92404.19;4964892;28;20053;-90
2022/02/05 04:48:21;;;;;;;40.95;18.30;;;;;;;0.58;82.41;92418.59;4991454;28;20108;-90
2022/02/05 05:03:58;;;;;;;32.85;16.27;;;;;;;0.96;81.31;92474.00;4976620;28;20054;-90
2022/02/05 05:06:44;;;;;;;;;;;;;;;;;;;;;
2022/02/05 05:12:16;;;;;;;36.83;17.60;;;;;;;1.06;81.29;92498.41;4997750;28;20048;-90
2022/02/05 05:20:58;;;;;;;;;;;;;;;;;;;;;
2022/02/05 05:23:56;;;;;;;38.00;17.38;;;;;;;0.81;81.32;92468.53;5015767;28;20502;-90
2022/02/05 05:26:54;;;;;;;;;;;;;;;;;;;;;
2022/02/05 05:29:25;;;;;;;30.30;13.25;;;;;;;0.58;81.76;92423.75;4986513;28;20073;-89
2022/02/05 05:32:14;;;;;;;24.88;10.00;;;;;;;0.57;79.28;92418.84;4970453;28;20126;-90
2022/02/05 05:34:59;;;;;;;16.95;7.28;;;;;;;0.78;77.78;92450.97;4966951;28;20045;-90
2022/02/05 05:38:15;;;;;;;;;;;;;;;1.21;76.46;92498.72;5001223;28;20054;-89
2022/02/05 05:40:52;;;;;;;13.70;6.20;;;;;;;1.07;76.20;92476.81;4979164;28;19918;-90
2022/02/05 05:44:04;;;;;;;;;;;;;;;;;;;;;
2022/02/05 05:46:46;;;;;;;10.75;4.25;;;;;;;1.15;72.18;92417.13;4980730;28;20040;-89
2022/02/05 05:49:43;;;;;;;5.63;2.83;;;;;;;1.72;71.77;92491.94;4969072;28;20059;-89
2022/02/05 05:52:24;;;;;;;;;;;;;;;;;;;;;
2022/02/05 05:55:08;;;;;;;14.35;6.30;;;;;;;1.85;70.13;92454.75;4998602;28;20046;-90
2022/02/05 05:58:12;;;;;;;12.88;6.25;;;;;;;1.63;69.92;92421.84;4998372;28;20034;-89
2022/02/05 06:00:56;;;;;;;;;;;;;;;;;;;;;
2022/02/05 06:08:29;;;;;;;;;;;;;;;;;;;;;
2022/02/05 06:19:17;;;;;;;7.53;3.35;;;;;;;1.47;68.97;92443.25;4936990;29;20043;-88
2022/02/05 06:22:26;;;;;;;7.80;3.90;;;;;;;1.32;69.24;92437.81;4919199;29;20059;-89
2022/02/05 06:32:25;;;;;;;;;;;;;;;;;;;;;
2022/02/05 06:35:02;;;;;;;11.25;4.68;;;;;;;1.47;69.42;92510.34;4934857;29;20054;-90
2022/02/05 06:38:00;;;;;;;;;;;;;;;;;;;;;
2022/02/05 06:40:52;;;;;;;11.80;5.65;;;;;;;1.04;69.78;92463.34;4932568;29;20048;-89
2022/02/05 06:43:31;;;;;;;15.73;6.63;;;;;;;1.40;70.18;92520.78;4981575;28;20062;-88
2022/02/05 06:46:42;;;;;;;10.60;5.45;;;;;;;1.67;70.00;92556.38;4977729;28;20070;-89
2022/02/05 06:49:36;;;;;;;11.07;5.32;;;;;;;1.28;69.16;92478.75;4979541;28;20049;-89
2022/02/05 06:52:34;;;;;;;10.45;4.82;;;;;;;1.73;68.53;92527.06;4969383;28;20099;-88
2022/02/05 06:55:38;;;;;;;;;;;;;;;;;;;;;
2022/02/05 06:58:24;;;;;;;;;;;;;;;;;;;;;
2022/02/05 07:00:56;;;;;;;9.57;4.25;;;;;;;4.53;62.14;92527.59;4981421;28;20034;-88
2022/02/05 07:03:54;;;;;;;9.98;5.25;;;;;;;5.06;59.25;92551.03;4996893;28;20048;-88
2022/02/05 07:06:31;;;;;;;12.63;4.47;;;;;;;4.13;60.11;92515.84;4970062;28;20490;-88
2022/02/05 07:09:30;;;;;;;11.02;4.70;;;;;;;3.55;60.70;92516.28;4970240;28;20065;-89
2022/02/05 07:12:26;;;;;;;10.52;3.78;;;;;;;3.40;62.06;92552.34;5012597;28;20042;-88
2022/02/05 07:15:35;;;;;;;6.30;3.22;;;;;;;3.13;62.72;92563.38;4991989;28;20038;-88
2022/02/05 07:21:27;;;;;;;;;;;;;;;;;;;;;
2022/02/05 07:30:53;;;;;;;8.52;2.78;;;;;;;2.98;62.74;92583.84;4993488;28;20365;-88
2022/02/05 07:33:32;;;;;;;5.60;2.50;;;;;;;2.87;63.11;92567.41;4966498;28;20508;-86
2022/02/05 07:36:12;;;;;;;;;;;;;;;;;;;;;
2022/02/05 07:38:49;;;;;;;10.45;3.75;;;;;;;2.91;63.24;92544.47;4979592;28;20035;-86
2022/02/05 07:41:22;;;;;;;8.45;3.42;;;;;;;3.01;62.22;92546.41;4980544;28;20544;-87
2022/02/05 07:43:55;;;;;;;7.07;3.08;;;;;;;3.08;62.12;92544.41;4990195;28;20034;-87
2022/02/05 07:46:23;;;;;;;6.07;2.88;;;;;;;3.34;61.56;92569.59;4990200;28;20125;-85
2022/02/05 07:48:49;;;;;;;5.90;2.45;;;;;;;3.58;61.03;92589.31;4989112;28;20523;-85
2022/02/05 07:51:14;;;;;;;5.07;2.35;;;;;;;3.87;60.49;92623.56;4983969;28;20042;-84
2022/02/05 07:53:40;;;;;;;5.57;2.08;;;;;;;3.97;59.97;92627.06;4977635;28;20116;-84
2022/02/05 07:56:06;;;;;;;3.63;1.70;;;;;;;4.09;58.46;92626.94;4979178;28;20038;-85
2022/02/05 07:58:33;;;;;;;3.38;1.60;;;;;;;4.16;57.60;92624.16;5002042;28;20053;-84
2022/02/05 08:00:58;;;;;;;3.75;1.88;;;;;;;4.31;57.71;92634.69;4999613;28;20038;-85
2022/02/05 08:03:24;;;;;;;2.60;1.42;;;;;;;4.44;55.83;92637.94;5000334;28;20057;-84
2022/02/05 08:05:49;;;;;;;4.80;1.00;;;;;;;4.71;50.29;92628.34;5005041;28;20492;-85
2022/02/05 08:08:19;;;;;;;3.35;0.80;;;;;;;5.07;48.95;92636.41;5000678;28;20112;-85
2022/02/05 08:10:53;;;;;;;1.02;0.63;;;;;;;5.36;49.32;92642.06;5009977;28;20062;-85
2022/02/05 08:13:19;;;;;;;1.05;0.80;;;;;;;5.43;48.65;92616.66;4980881;28;20042;-84
2022/02/05 08:15:51;;;;;;;1.50;0.70;;;;;;;5.68;48.82;92643.03;4994475;28;20029;-87
2022/02/05 08:18:17;;;;;;;2.22;1.00;;;;;;;5.60;49.62;92613.88;5006027;28;20034;-85
2022/02/05 08:20:42;;;;;;;4.28;1.10;;;;;;;5.75;48.27;92641.78;4999462;28;20544;-85
2022/02/05 08:23:08;;;;;;;0.95;0.60;;;;;;;5.90;46.82;92655.84;5010480;28;20041;-85
2022/02/05 08:25:34;;;;;;;1.33;0.80;;;;;;;6.02;46.45;92649.47;5007610;28;20088;-84
2022/02/05 08:27:59;;;;;;;1.30;0.60;;;;;;;6.16;45.77;92651.59;4998295;28;20087;-85
2022/02/05 08:30:25;;;;;;;2.10;0.80;;;;;;;6.22;46.32;92637.59;4990536;28;20507;-84
2022/02/05 08:32:50;;;;;;;4.22;0.85;;;;;;;6.34;47.22;92653.72;4993608;28;20391;-85
2022/02/05 08:35:16;;;;;;;1.17;0.77;;;;;;;6.47;47.25;92644.69;5002320;28;20034;-85
2022/02/05 08:37:47;;;;;;;2.08;0.80;;;;;;;6.75;48.10;92646.03;4967123;28;20053;-84
2022/02/05 08:40:13;;;;;;;1.75;0.82;;;;;;;7.08;48.38;92644.75;5008258;28;20034;-88
2022/02/05 08:42:39;;;;;;;2.50;0.98;;;;;;;7.29;47.67;92622.13;4966204;28;20806;-85
2022/02/05 08:45:05;;;;;;;2.17;1.00;;;;;;;8.07;48.26;92643.56;4989993;28;20038;-84
2022/02/05 08:47:31;;;;;;;2.45;1.30;;;;;;;9.10;48.61;92634.16;4996320;28;20038;-85
2022/02/05 08:49:57;;;;;;;1.58;0.77;;;;;;;9.79;43.79;92621.81;4980673;28;20042;-89
2022/02/05 08:52:23;;;;;;;3.60;0.70;;;;;;;10.37;40.45;92630.59;5004134;28;20066;-85
2022/02/05 08:54:49;;;;;;;2.65;0.68;;;;;;;11.33;39.25;92653.88;4983056;28;20522;-85
2022/02/05 08:57:15;;;;;;;13.85;6.75;;;;;;;12.53;37.85;92639.19;4984856;28;20042;-86
2022/02/05 09:00:09;;;;;;;10.90;3.60;;;;;;;12.02;36.36;92640.16;4995602;28;20060;-87
2022/02/05 09:05:09;;;;;;;9.90;3.80;;;;;;;11.52;36.44;92664.31;5002797;28;20042;-89
2022/02/05 09:07:35;;;;;;;5.07;1.95;;;;;;;11.36;34.69;92655.91;5014232;28;20038;-85
2022/02/05 09:10:10;;;;;;;6.85;2.63;;;;;;;11.72;35.73;92642.22;4996425;28;20068;-86
2022/02/05 09:15:03;;;;;;;16.45;7.78;;;;;;;12.26;39.14;92651.25;4992216;28;20039;-85
2022/02/05 09:17:29;;;;;;;9.40;3.97;;;;;;;12.20;34.95;92660.28;4980384;28;20034;-86
2022/02/05 09:19:54;;;;;;;13.55;5.60;;;;;;;12.05;36.55;92639.59;4979413;28;20377;-85
2022/02/05 09:22:20;;;;;;;9.13;4.95;;;;;;;11.95;35.98;92660.75;4974979;28;20120;-85
2022/02/05 09:24:46;;;;;;;12.50;6.07;;;;;;;11.98;38.03;92660.16;4993003;28;20062;-86
2022/02/05 09:27:12;;;;;;;16.40;7.93;;;;;;;11.79;39.37;92637.38;4976692;28;20546;-86
2022/02/05 09:32:24;;;;;;;16.13;7.65;;;;;;;12.03;38.63;92665.34;4981984;28;20057;-85
2022/02/05 09:34:50;;;;;;;8.50;3.97;;;;;;;11.70;36.06;92681.06;5002859;28;20041;-86
2022/02/05 09:37:16;;;;;;;7.20;2.80;;;;;;;11.87;34.95;92673.47;4995561;28;20124;-85
2022/02/05 09:39:43;;;;;;;5.32;2.67;;;;;;;11.76;33.38;92666.81;4975687;28;20046;-85
2022/02/05 09:42:13;;;;;;;8.60;4.43;;;;;;;12.15;35.52;92677.97;4976742;28;20045;-85
2022/02/05 09:44:39;;;;;;;9.48;3.10;;;;;;;12.85;33.05;92677.63;4999618;28;20062;-86
2022/02/05 09:47:05;;;;;;;6.60;3.15;;;;;;;12.52;33.41;92684.09;4995115;28;20554;-87
2022/02/05 09:49:31;;;;;;;5.93;2.80;;;;;;;12.65;34.10;92662.31;4980235;28;20037;-86
2022/02/05 09:52:12;;;;;;;4.35;2.05;;;;;;;14.04;31.44;92681.00;4982631;28;20129;-85
2022/02/05 09:54:41;;;;;;;8.15;3.40;;;;;;;14.25;29.83;92687.31;4993167;28;20042;-85
2022/02/05 09:57:07;;;;;;;6.40;3.25;;;;;;;14.03;31.90;92692.63;5012898;28;20149;-85
2022/02/05 09:59:46;;;;;;;20.95;11.48;;;;;;;13.68;36.45;92692.41;4977426;28;20080;-87
2022/02/05 10:02:29;;;;;;;11.55;5.05;;;;;;;12.84;31.79;92702.38;5006932;28;20172;-86
2022/02/05 10:05:03;;;;;;;6.35;3.55;;;;;;;12.54;32.07;92658.31;4986192;28;20054;-85
2022/02/05 10:07:30;;;;;;;13.85;6.93;;;;;;;13.27;34.52;92703.84;4981546;28;20332;-86
2022/02/05 10:10:00;;;;;;;8.90;4.57;;;;;;;12.88;32.53;92703.34;5010446;28;20112;-85
2022/02/05 10:13:21;;;;;;;;;;;;;;;;;;;;;
2022/02/05 10:16:04;;;;;;;4.20;1.75;;;;;;;13.19;30.42;92646.72;4996046;28;20040;-86
2022/02/05 10:19:06;;;;;;;12.35;6.97;;;;;;;13.56;32.76;92644.84;4987518;28;20140;-86
2022/02/05 10:22:23;;;;;;;17.00;7.45;;;;;;;12.85;32.92;92663.72;4976403;28;20527;-87
2022/02/05 10:29:44;;;;;;;9.43;5.03;;;;;;;13.04;33.42;92709.06;4894902;29;20040;-88
2022/02/05 10:32:59;;;;;;;;;;;;;;;;;;;;;
2022/02/05 10:47:09;;;;;;;;;;;;;;;;;;;;;
2022/02/05 11:10:17;;;;;;;21.52;10.73;;;;;;;12.17;36.71;92639.88;4789548;29;20128;-89
2022/02/05 11:21:22;;;;;;;13.50;6.03;;;;;;;11.68;33.98;92615.03;4961552;28;20042;-88
2022/02/05 11:24:05;;;;;;;;;;;;;;;;;;;;;
2022/02/05 11:26:55;;;;;;;;;;;;;;;;;;;;;
2022/02/05 11:30:16;;;;;;;10.48;4.68;;;;;;;12.65;31.09;92617.66;4972677;28;20400;-88
2022/02/05 11:33:22;;;;;;;;;;;;;;;;;;;;;
2022/02/05 11:55:33;;;;;;;10.52;4.50;;;;;;;12.90;30.51;92676.75;5076880;23;20129;-77
2022/02/05 11:58:01;;;;;;;22.75;11.25;;;;;;;12.62;37.77;92691.78;5086238;28;20065;-77
2022/02/05 12:00:34;;;;;;;13.55;6.10;;;;;;;12.57;31.61;92684.78;5061262;28;20386;-77
2022/02/05 12:03:16;;;;;;;20.42;9.05;;;;;;;12.28;34.45;92682.47;5056634;28;20036;-76
2022/02/05 12:05:50;;;;;;;17.97;7.87;;;;;;;12.50;34.42;92687.03;5089045;28;20036;-76
2022/02/05 12:08:16;;;;;;;16.52;8.20;;;;;;;12.23;37.87;92678.09;5073558;28;20090;-77
2022/02/05 12:10:51;;;;;;;16.85;8.80;;;;;;;12.37;36.34;92679.94;5080925;28;20032;-77
2022/02/05 12:13:25;;;;;;;22.08;11.02;;;;;;;12.30;39.38;92680.31;5071496;28;20115;-76
2022/02/05 12:15:59;;;;;;;25.27;11.65;;;;;;;11.61;42.13;92680.94;5088261;28;20023;-76
2022/02/05 12:18:29;;;;;;;24.73;11.27;;;;;;;12.14;40.31;92682.44;5058953;28;20045;-77
2022/02/05 12:21:07;;;;;;;30.92;11.50;;;;;;;11.77;40.08;92681.47;5056376;28;20043;-76
2022/02/05 12:26:19;;;;;;;22.98;10.68;;;;;;;12.17;39.37;92688.97;5057153;28;20033;-77
2022/02/05 12:28:46;;;;;;;18.45;7.93;;;;;;;12.34;35.83;92683.13;5070670;28;20463;-77
2022/02/05 12:31:18;;;;;;;22.10;10.88;;;;;;;12.21;39.88;92674.97;5049452;28;20028;-77
2022/02/05 12:33:46;;;;;;;19.88;9.40;;;;;;;12.08;36.61;92675.75;5058308;28;20033;-77
2022/02/05 12:36:13;;;;;;;13.00;6.13;;;;;;;12.49;33.09;92682.84;5074296;28;20096;-77
2022/02/05 12:38:43;;;;;;;12.93;6.97;;;;;;;12.69;31.86;92674.56;5084467;28;20032;-77
2022/02/05 12:41:12;;;;;;;14.75;8.13;;;;;;;12.39;33.55;92681.19;5079153;28;20031;-78
2022/02/05 12:43:58;;;;;;;25.42;12.48;;;;;;;11.84;40.00;92679.28;5045109;28;20033;-77
2022/02/05 12:46:46;;;;;;;22.67;8.85;;;;;;;11.99;39.44;92682.72;5081709;28;20549;-77
2022/02/05 12:49:22;;;;;;;15.50;6.95;;;;;;;12.32;34.61;92680.03;5071669;28;20042;-77
2022/02/05 12:51:49;;;;;;;18.80;8.32;;;;;;;12.37;34.33;92677.31;5070284;28;20048;-77
2022/02/05 12:54:19;;;;;;;13.77;6.45;;;;;;;12.62;32.24;92683.91;5082421;28;20612;-77
2022/02/05 12:56:47;;;;;;;22.35;9.32;;;;;;;12.85;35.30;92677.63;5092100;28;20028;-77
2022/02/05 12:59:17;;;;;;;24.08;12.43;;;;;;;12.21;38.06;92679.44;5090793;28;20324;-77
2022/02/05 13:01:52;;;;;;;22.65;9.50;;;;;;;12.20;34.96;92678.66;5070822;28;20093;-77
2022/02/05 13:04:20;;;;;;;15.85;7.55;;;;;;;12.34;32.63;92677.88;5079487;28;20034;-76
2022/02/05 13:07:10;;;;;;;19.10;8.32;;;;;;;12.73;32.60;92679.25;5083701;28;20043;-76
2022/02/05 13:09:49;;;;;;;21.02;10.02;;;;;;;12.07;36.05;92674.97;5079312;28;20042;-77
2022/02/05 13:12:22;;;;;;;32.50;14.38;;;;;;;13.20;36.76;92690.34;5053811;28;20031;-77
2022/02/05 13:14:51;;;;;;;32.92;16.83;;;;;;;12.59;38.97;92689.75;5063190;28;20041;-77
2022/02/05 13:17:48;;;;;;;33.72;14.57;;;;;;;12.64;37.97;92687.78;5071710;28;20414;-76
2022/02/05 13:34:19;;;;;;;30.98;13.20;;;;;;;12.78;35.91;92687.00;5080812;28;20132;-77
2022/02/05 13:37:11;;;;;;;22.08;10.13;;;;;;;12.94;33.42;92677.72;5076946;28;20120;-77
2022/02/05 13:42:16;;;;;;;24.63;12.02;;;;;;;12.96;37.01;92688.72;5078526;28;20024;-76
2022/02/05 13:45:18;;;;;;;28.63;14.95;;;;;;;12.02;39.80;92688.19;5059856;28;20349;-76
2022/02/05 13:47:43;;;;;;;31.52;14.98;;;;;;;12.34;38.80;92688.38;5091110;28;20047;-76
2022/02/05 13:50:10;;;;;;;19.65;9.43;;;;;;;12.25;33.83;92688.31;5088153;28;20020;-76
2022/02/05 13:52:48;;;;;;;18.73;9.60;;;;;;;12.66;34.04;92690.91;5053899;28;20078;-77
2022/02/05 13:55:26;;;;;;;14.43;5.72;;;;;;;11.90;29.41;92689.72;5047017;28;20079;-77
2022/02/05 13:58:00;;;;;;;23.23;12.32;;;;;;;12.59;35.71;92695.78;5076028;28;20508;-77
2022/02/05 14:00:49;;;;;;;30.25;14.80;;;;;;;12.74;38.60;92702.56;5091154;28;20099;-77
2022/02/05 14:03:26;;;;;;;17.63;7.60;;;;;;;13.12;30.69;92697.81;5080459;28;20034;-77
2022/02/05 14:06:04;;;;;;;23.90;12.63;;;;;;;13.13;35.62;92703.88;5068994;28;20036;-77
2022/02/05 14:08:58;;;;;;;31.42;15.90;;;;;;;12.96;38.12;92704.47;5068236;28;20027;-77
2022/02/05 14:11:29;;;;;;;25.58;11.18;;;;;;;12.39;35.48;92709.31;5081657;28;20040;-76
2022/02/05 14:14:02;;;;;;;32.22;14.70;;;;;;;12.31;39.61;92715.22;5067376;28;20485;-77
2022/02/05 14:16:37;;;;;;;24.08;9.88;;;;;;;12.44;35.31;92717.06;5071497;28;20497;-77
2022/02/05 14:19:04;;;;;;;26.38;12.13;;;;;;;12.93;35.69;92726.09;5083354;28;20036;-77
2022/02/05 14:21:38;;;;;;;23.23;12.48;;;;;;;12.31;37.51;92725.72;5069951;28;20035;-77
2022/02/05 14:24:06;;;;;;;26.23;13.35;;;;;;;12.65;36.78;92731.38;5069494;28;20123;-77
2022/02/05 14:26:41;;;;;;;24.52;12.48;;;;;;;13.21;35.94;92729.44;5071018;28;20024;-77
2022/02/05 14:29:07;;;;;;;19.80;8.65;;;;;;;13.53;32.71;92731.16;5086498;28;20044;-77
2022/02/05 14:31:43;;;;;;;14.32;6.97;;;;;;;13.57;29.23;92728.69;5058863;28;20440;-77
2022/02/05 14:42:10;;;;;;;24.73;11.25;;;;;;;13.13;35.73;92740.69;5086193;28;20040;-78
2022/02/05 14:44:36;;;;;;;19.98;9.38;;;;;;;13.18;32.23;92732.69;5062269;28;20043;-77
2022/02/05 14:47:04;;;;;;;30.48;13.65;;;;;;;12.60;36.92;92736.72;5056485;28;20043;-78
2022/02/05 14:49:30;;;;;;;21.17;11.02;;;;;;;12.55;34.31;92736.06;5066362;28;20545;-77
2022/02/05 14:51:57;;;;;;;12.13;6.20;;;;;;;13.11;29.80;92743.59;5041657;28;20036;-78
2022/02/05 14:54:23;;;;;;;14.00;5.47;;;;;;;13.84;27.91;92735.69;5081326;28;20143;-78
2022/02/05 14:56:49;;;;;;;11.55;5.75;;;;;;;14.01;27.96;92747.41;5054312;28;20108;-78
2022/02/05 14:59:15;;;;;;;18.02;7.78;;;;;;;13.79;29.36;92741.06;5042155;28;20509;-77
2022/02/05 15:01:41;;;;;;;11.88;5.88;;;;;;;13.53;27.45;92739.03;5084479;28;20037;-77
2022/02/05 15:04:07;;;;;;;9.40;4.68;;;;;;;13.53;25.85;92746.94;5068410;28;20347;-77
2022/02/05 15:06:34;;;;;;;3.25;1.60;;;;;;;13.85;22.40;92744.38;5095233;28;20439;-77
2022/02/05 15:09:06;;;;;;;7.20;3.50;;;;;;;14.12;24.75;92748.72;5093003;28;20043;-77
2022/02/05 15:11:32;;;;;;;4.82;1.50;;;;;;;14.28;21.23;92742.00;5072282;28;20036;-77
2022/02/05 15:14:00;;;;;;;16.50;8.73;;;;;;;13.80;24.21;92753.16;5090328;28;20024;-78
2022/02/05 15:16:26;;;;;;;10.60;4.97;;;;;;;13.35;25.83;92758.34;5078146;28;20482;-78
2022/02/05 15:18:54;;;;;;;7.32;2.72;;;;;;;12.99;24.54;92756.47;5097469;28;20032;-78
2022/02/05 15:21:31;;;;;;;6.65;2.10;;;;;;;13.18;23.83;92755.56;5078068;28;20036;-78
2022/02/05 15:23:57;;;;;;;3.63;1.90;;;;;;;13.15;22.34;92761.38;5063540;28;20025;-78
2022/02/05 15:26:26;;;;;;;9.52;4.03;;;;;;;13.05;24.26;92760.53;5058830;28;20066;-79
2022/02/05 15:28:52;;;;;;;3.83;1.50;;;;;;;13.26;22.16;92758.28;5066340;28;20067;-78
2022/02/05 15:31:19;;;;;;;3.00;1.15;;;;;;;13.20;21.17;92756.03;5087142;28;20066;-78
2022/02/05 15:33:47;;;;;;;1.17;0.73;;;;;;;13.42;20.81;92757.94;5088915;28;20057;-79
2022/02/05 15:36:24;;;;;;;1.08;0.80;;;;;;;13.16;20.68;92765.59;5091198;28;20034;-80
2022/02/05 15:44:00;;;;;;;2.72;1.40;;;;;;;12.73;21.86;92776.41;5067890;28;20048;-79
2022/02/05 15:46:26;;;;;;;0.82;0.73;;;;;;;12.49;20.97;92780.00;5053611;28;20041;-79
2022/02/05 15:48:52;;;;;;;1.67;0.65;;;;;;;12.05;21.66;92786.53;5051557;28;20100;-79
2022/02/05 15:51:18;;;;;;;0.50;0.50;;;;;;;11.63;22.11;92785.56;5076322;28;20041;-78
2022/02/05 15:53:52;;;;;;;1.17;0.73;;;;;;;11.33;22.21;92792.78;5045134;28;20072;-78
2022/02/05 15:58:55;;;;;;;0.80;0.70;;;;;;;10.69;23.23;92794.06;5050008;28;20390;-78
2022/02/05 16:01:21;;;;;;;0.80;0.57;;;;;;;10.50;23.73;92796.63;5064492;28;20103;-78
2022/02/05 16:03:46;;;;;;;0.93;0.63;;;;;;;10.37;23.93;92803.31;5092936;28;20070;-78
2022/02/05 16:06:13;;;;;;;1.20;0.70;;;;;;;10.18;23.91;92806.59;5089575;28;20043;-78
2022/02/05 16:08:39;;;;;;;1.63;0.90;;;;;;;10.03;23.98;92809.31;5053593;28;20124;-78
2022/02/05 16:11:05;;;;;;;1.13;0.80;;;;;;;9.95;23.79;92815.13;5079027;28;20040;-78
2022/02/05 16:13:30;;;;;;;1.00;0.60;;;;;;;9.77;24.49;92817.38;5055640;28;20086;-76
2022/02/05 16:15:57;;;;;;;0.65;0.60;;;;;;;9.63;24.21;92811.19;5067161;28;20066;-78
2022/02/05 16:18:24;;;;;;;3.08;0.70;;;;;;;9.48;24.22;92819.09;5094617;28;20032;-79
2022/02/05 16:20:50;;;;;;;1.10;0.70;;;;;;;9.38;24.76;92827.78;5092644;28;20133;-79
2022/02/05 16:23:16;;;;;;;4.78;0.90;;;;;;;9.28;24.72;92820.03;5068296;28;20048;-78
2022/02/05 16:25:42;;;;;;;0.50;0.50;;;;;;;9.13;24.20;92823.47;5069432;28;20041;-78
2022/02/05 16:28:08;;;;;;;0.60;0.50;;;;;;;9.00;24.65;92824.84;5066282;28;20040;-79
2022/02/05 16:30:38;;;;;;;0.77;0.70;;;;;;;8.96;24.69;92839.47;5093694;28;20051;-78
2022/02/05 16:33:10;;;;;;;2.17;0.80;;;;;;;8.85;25.53;92833.53;5075735;28;20037;-78
2022/02/05 16:35:44;;;;;;;1.23;0.73;;;;;;;8.75;25.56;92829.09;5078279;28;20085;-79
2022/02/05 16:38:17;;;;;;;0.95;0.73;;;;;;;8.65;25.75;92839.59;5051540;28;20047;-78
2022/02/05 16:40:42;;;;;;;0.70;0.70;;;;;;;8.54;25.88;92838.81;5088635;28;20525;-79
2022/02/05 16:43:08;;;;;;;1.05;0.70;;;;;;;8.46;25.87;92838.56;5060462;28;20051;-79
2022/02/05 16:45:38;;;;;;;1.00;0.80;;;;;;;8.38;26.38;92850.31;5077981;28;20036;-77
2022/02/05 16:48:05;;;;;;;0.82;0.70;;;;;;;8.27;26.06;92849.53;5066435;28;20012;-79
2022/02/05 16:50:36;;;;;;;1.20;0.68;;;;;;;8.18;25.86;92845.88;5054657;28;20043;-78
2022/02/05 16:53:03;;;;;;;1.15;0.65;;;;;;;8.08;26.39;92867.53;5066472;28;20040;-78
2022/02/05 16:55:29;;;;;;;0.98;0.75;;;;;;;8.01;26.05;92853.19;5054292;28;20056;-78
2022/02/05 16:57:55;;;;;;;2.10;1.05;;;;;;;8.00;26.08;92859.44;5062375;28;20410;-78
2022/02/05 17:00:21;;;;;;;0.68;0.68;;;;;;;7.95;25.60;92859.44;5059295;28;20119;-79
2022/02/05 17:02:47;;;;;;;1.73;1.00;;;;;;;7.86;25.90;92862.56;5061731;28;20503;-78
2022/02/05 17:05:12;;;;;;;3.53;0.90;;;;;;;7.75;26.15;92866.22;5089766;28;20036;-79
2022/02/05 17:07:40;;;;;;;2.03;0.73;;;;;;;7.73;26.31;92881.31;5066955;28;20036;-78
2022/02/05 17:10:06;;;;;;;0.63;0.63;;;;;;;7.68;26.56;92883.91;5071496;28;20037;-78
2022/02/05 17:12:32;;;;;;;1.10;0.60;;;;;;;7.58;26.93;92884.66;5056685;28;20048;-78
2022/02/05 17:14:58;;;;;;;1.83;1.30;;;;;;;7.52;26.88;92885.72;5085838;28;20033;-77
2022/02/05 17:17:26;;;;;;;3.10;1.58;;;;;;;7.46;26.92;92891.94;5096584;28;20546;-78
2022/02/05 17:19:55;;;;;;;1.38;1.00;;;;;;;7.42;27.00;92888.28;5073365;28;20098;-77
2022/02/05 17:22:27;;;;;;;5.28;1.40;;;;;;;7.34;27.39;92897.38;5093924;28;20036;-78
2022/02/05 17:24:54;;;;;;;7.93;4.10;;;;;;;7.25;27.40;92901.50;5092779;28;20131;-77
2022/02/05 17:27:20;;;;;;;5.72;3.45;;;;;;;7.16;27.52;92898.63;5068378;28;20485;-77
2022/02/05 17:29:46;;;;;;;5.40;3.10;;;;;;;7.10;27.93;92904.84;5063376;28;20044;-77
2022/02/05 17:32:12;;;;;;;4.47;1.98;;;;;;;7.04;27.96;92909.22;5090187;28;20024;-78